Wetterdaten: Woche 19.06.06 - 25.06.06 (KW25)
Datum Zeit Temperatur Luftfeuchte Luftdruck Windrichtung Wind
19.06.2006 00:00 17,8 C 84 % 1018 hPa S-SW 3,0 km/h (1 Bft)
19.06.2006 01:00 17,4 C 84 % 1018 hPa N 0,0 km/h (0 Bft)
19.06.2006 02:00 16,6 C 87 % 1017 hPa N 0,0 km/h (0 Bft)
19.06.2006 03:00 15,7 C 89 % 1017 hPa N 0,0 km/h (0 Bft)
19.06.2006 04:00 14,8 C 91 % 1017 hPa N 0,0 km/h (0 Bft)
19.06.2006 05:00 14,3 C 92 % 1017 hPa N 0,0 km/h (0 Bft)
19.06.2006 06:00 14,4 C 94 % 1017 hPa N 0,0 km/h (0 Bft)
19.06.2006 07:00 15,8 C 95 % 1016 hPa S-SW 2,0 km/h (1 Bft)
19.06.2006 08:00 18,1 C 88 % 1016 hPa S-SW 8,8 km/h (2 Bft)
19.06.2006 09:00 19,8 C 79 % 1017 hPa S-SW 6,6 km/h (2 Bft)
19.06.2006 10:00 22,5 C 59 % 1017 hPa S-SW 13,9 km/h (3 Bft)
19.06.2006 11:00 24,8 C 46 % 1017 hPa W 14,6 km/h (3 Bft)
19.06.2006 12:00 25,4 C 43 % 1017 hPa W 15,6 km/h (3 Bft)
19.06.2006 13:00 22,6 C 53 % 1018 hPa W 13,2 km/h (3 Bft)
19.06.2006 14:00 22,9 C 54 % 1017 hPa W 10,5 km/h (2 Bft)
19.06.2006 15:00 26,0 C 41 % 1017 hPa W 9,5 km/h (2 Bft)
19.06.2006 16:00 27,3 C 42 % 1016 hPa S-SW 13,7 km/h (3 Bft)
19.06.2006 17:00 28,0 C 35 % 1016 hPa S-SW 12,9 km/h (3 Bft)
19.06.2006 18:00 27,6 C 36 % 1016 hPa S-SW 9,7 km/h (2 Bft)
19.06.2006 19:00 25,8 C 47 % 1016 hPa S-SW 9,9 km/h (2 Bft)
19.06.2006 20:00 23,7 C 54 % 1017 hPa S-SW 4,4 km/h (1 Bft)
19.06.2006 21:00 21,9 C 61 % 1017 hPa S-SW 12,3 km/h (3 Bft)
19.06.2006 22:00 21,0 C 56 % 1018 hPa W-SW 11,4 km/h (2 Bft)
19.06.2006 23:00 20,0 C 60 % 1018 hPa S-SW 6,4 km/h (2 Bft)
20.06.2006 00:00 19,2 C 67 % 1018 hPa O 1,6 km/h (1 Bft)
20.06.2006 01:00 18,8 C 71 % 1018 hPa O 0,6 km/h (0 Bft)
20.06.2006 02:00 17,9 C 74 % 1018 hPa N 0,0 km/h (0 Bft)
20.06.2006 03:00 16,6 C 81 % 1018 hPa N 0,0 km/h (0 Bft)
20.06.2006 04:00 15,8 C 85 % 1018 hPa N 0,0 km/h (0 Bft)
20.06.2006 05:00 15,2 C 87 % 1018 hPa N 0,0 km/h (0 Bft)
20.06.2006 06:00 15,4 C 90 % 1018 hPa N 0,0 km/h (0 Bft)
20.06.2006 07:00 17,0 C 84 % 1018 hPa N 0,0 km/h (0 Bft)
20.06.2006 08:00 19,1 C 72 % 1018 hPa N 0,0 km/h (0 Bft)
20.06.2006 09:00 21,7 C 61 % 1017 hPa O 5,5 km/h (1 Bft)
20.06.2006 10:00 24,8 C 49 % 1018 hPa S-SW 9,2 km/h (2 Bft)
20.06.2006 11:00 26,4 C 43 % 1018 hPa S-SW 11,7 km/h (2 Bft)
20.06.2006 12:00 28,3 C 40 % 1017 hPa S-SW 9,7 km/h (2 Bft)
20.06.2006 13:00 29,4 C 36 % 1017 hPa S-SW 11,8 km/h (2 Bft)
20.06.2006 14:00 29,9 C 32 % 1017 hPa W-SW 15,7 km/h (3 Bft)
20.06.2006 15:00 30,1 C 31 % 1017 hPa W 16,6 km/h (3 Bft)
20.06.2006 16:00 30,2 C 32 % 1017 hPa W-SW 13,4 km/h (3 Bft)
20.06.2006 17:00 29,9 C 32 % 1017 hPa W 14,7 km/h (3 Bft)
20.06.2006 18:00 29,0 C 35 % 1017 hPa W-SW 9,7 km/h (2 Bft)
20.06.2006 19:00 27,3 C 44 % 1017 hPa S-SW 5,5 km/h (1 Bft)
20.06.2006 20:00 25,4 C 50 % 1017 hPa W-SW 3,2 km/h (1 Bft)
20.06.2006 21:00 23,6 C 56 % 1017 hPa NW 1,2 km/h (1 Bft)
20.06.2006 22:00 21,9 C 66 % 1017 hPa N 0,0 km/h (0 Bft)
20.06.2006 23:00 20,8 C 75 % 1017 hPa N 0,0 km/h (0 Bft)
21.06.2006 00:00 20,1 C 81 % 1017 hPa N 0,0 km/h (0 Bft)
21.06.2006 01:00 19,7 C 83 % 1016 hPa N 0,0 km/h (0 Bft)
21.06.2006 02:00 19,4 C 85 % 1016 hPa N 0,0 km/h (0 Bft)
21.06.2006 03:00 19,2 C 87 % 1015 hPa N 0,0 km/h (0 Bft)
21.06.2006 04:00 18,9 C 87 % 1015 hPa NW 5,5 km/h (1 Bft)
21.06.2006 05:00 18,9 C 90 % 1015 hPa NW 3,7 km/h (1 Bft)
21.06.2006 06:00 18,8 C 91 % 1016 hPa N 0,1 km/h (0 Bft)
21.06.2006 07:00 19,1 C 91 % 1016 hPa S-SW 7,5 km/h (2 Bft)
21.06.2006 08:00 21,1 C 79 % 1016 hPa S-SW 7,9 km/h (2 Bft)
21.06.2006 09:00 22,6 C 65 % 1016 hPa W 8,5 km/h (2 Bft)
21.06.2006 10:00 24,5 C 56 % 1016 hPa W 6,8 km/h (2 Bft)
21.06.2006 11:00 26,5 C 47 % 1016 hPa W-SW 12,7 km/h (3 Bft)
21.06.2006 12:00 27,7 C 41 % 1016 hPa S 15,5 km/h (3 Bft)
21.06.2006 13:00 28,4 C 41 % 1015 hPa S-SW 14,7 km/h (3 Bft)
21.06.2006 14:00 28,1 C 42 % 1015 hPa W 12,3 km/h (3 Bft)
21.06.2006 15:00 28,6 C 41 % 1014 hPa W 12,0 km/h (2 Bft)
21.06.2006 16:00 27,9 C 42 % 1014 hPa S-SW 13,0 km/h (3 Bft)
21.06.2006 17:00 26,6 C 49 % 1014 hPa SW 15,2 km/h (3 Bft)
21.06.2006 18:00 24,5 C 57 % 1014 hPa SW 14,0 km/h (3 Bft)
21.06.2006 19:00 22,1 C 67 % 1015 hPa SW 13,7 km/h (3 Bft)
21.06.2006 20:00 20,9 C 77 % 1015 hPa S-SW 6,6 km/h (2 Bft)
21.06.2006 21:00 19,3 C 85 % 1015 hPa S-SW 14,4 km/h (3 Bft)
21.06.2006 22:00 18,3 C 92 % 1016 hPa S-SW 14,0 km/h (3 Bft)
21.06.2006 23:00 17,9 C 94 % 1016 hPa S-SW 13,4 km/h (3 Bft)
22.06.2006 00:00 17,6 C 94 % 1016 hPa S-SW 11,4 km/h (2 Bft)
22.06.2006 01:00 17,3 C 95 % 1016 hPa SW 9,0 km/h (2 Bft)
22.06.2006 02:00 17,1 C 93 % 1015 hPa S 3,8 km/h (1 Bft)
22.06.2006 03:00 16,7 C 95 % 1016 hPa N 0,0 km/h (0 Bft)
22.06.2006 04:00 16,5 C 96 % 1015 hPa N 0,1 km/h (0 Bft)
22.06.2006 05:00 16,1 C 96 % 1015 hPa N 0,0 km/h (0 Bft)
22.06.2006 06:00 16,7 C 98 % 1015 hPa O-SO 1,1 km/h (1 Bft)
22.06.2006 07:00 17,5 C 96 % 1015 hPa S 8,7 km/h (2 Bft)
22.06.2006 08:00 18,4 C 92 % 1015 hPa S 11,1 km/h (2 Bft)
22.06.2006 09:00 19,3 C 84 % 1016 hPa S-SW 10,0 km/h (2 Bft)
22.06.2006 10:00 19,0 C 73 % 1016 hPa W 7,8 km/h (2 Bft)
22.06.2006 11:00 18,8 C 70 % 1016 hPa SW 5,1 km/h (1 Bft)
22.06.2006 12:00 19,0 C 70 % 1016 hPa W-SW 5,5 km/h (1 Bft)
22.06.2006 13:00 19,5 C 67 % 1016 hPa W-SW 5,9 km/h (2 Bft)
22.06.2006 14:00 19,9 C 62 % 1016 hPa W-SW 9,2 km/h (2 Bft)
22.06.2006 15:00 20,2 C 59 % 1016 hPa W-SW 10,4 km/h (2 Bft)
22.06.2006 16:00 20,8 C 56 % 1015 hPa W-SW 13,2 km/h (3 Bft)
22.06.2006 17:00 20,5 C 57 % 1015 hPa W-SW 11,5 km/h (2 Bft)
22.06.2006 18:00 20,0 C 61 % 1015 hPa W-SW 12,1 km/h (2 Bft)
22.06.2006 19:00 19,5 C 63 % 1015 hPa S-SW 10,9 km/h (2 Bft)
22.06.2006 20:00 18,7 C 66 % 1016 hPa S-SW 10,3 km/h (2 Bft)
22.06.2006 21:00 18,0 C 69 % 1016 hPa SW 10,0 km/h (2 Bft)
22.06.2006 22:00 17,7 C 72 % 1017 hPa W 5,8 km/h (2 Bft)
22.06.2006 23:00 17,5 C 74 % 1017 hPa N 0,0 km/h (0 Bft)
23.06.2006 00:00 17,2 C 74 % 1017 hPa N 0,0 km/h (0 Bft)
23.06.2006 01:00 16,9 C 76 % 1017 hPa NO 0,2 km/h (0 Bft)
23.06.2006 02:00 16,7 C 80 % 1017 hPa N 0,0 km/h (0 Bft)
23.06.2006 03:00 16,3 C 82 % 1017 hPa N 0,1 km/h (0 Bft)
23.06.2006 04:00 16,0 C 84 % 1017 hPa N 2,0 km/h (1 Bft)
23.06.2006 05:00 15,8 C 84 % 1018 hPa N-NO 6,2 km/h (2 Bft)
23.06.2006 06:00 15,6 C 84 % 1017 hPa N 7,9 km/h (2 Bft)
23.06.2006 07:00 15,5 C 80 % 1018 hPa N 10,3 km/h (2 Bft)
23.06.2006 08:00 15,8 C 70 % 1018 hPa N 12,9 km/h (3 Bft)
23.06.2006 09:00 16,9 C 59 % 1018 hPa N-NO 12,5 km/h (3 Bft)
23.06.2006 10:00 18,5 C 55 % 1018 hPa N 12,5 km/h (3 Bft)
23.06.2006 11:00 20,5 C 51 % 1018 hPa N-NO 10,8 km/h (2 Bft)
23.06.2006 12:00 21,3 C 48 % 1018 hPa N 11,9 km/h (2 Bft)
23.06.2006 13:00 21,7 C 47 % 1018 hPa N-NO 13,0 km/h (3 Bft)
23.06.2006 14:00 22,6 C 46 % 1018 hPa N-NO 13,4 km/h (3 Bft)
23.06.2006 15:00 22,9 C 45 % 1017 hPa N 13,0 km/h (3 Bft)
23.06.2006 16:00 22,5 C 47 % 1017 hPa N 11,3 km/h (2 Bft)
23.06.2006 17:00 23,0 C 46 % 1017 hPa O 13,3 km/h (3 Bft)
23.06.2006 18:00 22,6 C 46 % 1017 hPa O 13,3 km/h (3 Bft)
23.06.2006 19:00 22,0 C 50 % 1017 hPa O 13,1 km/h (3 Bft)
23.06.2006 20:00 20,8 C 56 % 1017 hPa O-NO 9,2 km/h (2 Bft)
23.06.2006 21:00 19,5 C 63 % 1017 hPa O-NO 3,5 km/h (1 Bft)
23.06.2006 22:00 17,6 C 71 % 1017 hPa N 0,0 km/h (0 Bft)
23.06.2006 23:00 16,1 C 79 % 1018 hPa N 0,0 km/h (0 Bft)
24.06.2006 00:00 15,3 C 85 % 1017 hPa N-NW 0,4 km/h (0 Bft)
24.06.2006 01:00 15,1 C 88 % 1017 hPa W 0,5 km/h (0 Bft)
24.06.2006 02:00 14,8 C 90 % 1017 hPa W-NW 1,2 km/h (1 Bft)
24.06.2006 03:00 14,5 C 91 % 1016 hPa W-NW 0,9 km/h (0 Bft)
24.06.2006 04:00 14,1 C 92 % 1016 hPa NW 0,5 km/h (0 Bft)
24.06.2006 05:00 13,8 C 94 % 1016 hPa N 0,2 km/h (0 Bft)
24.06.2006 06:00 13,7 C 95 % 1016 hPa N-NW 2,0 km/h (1 Bft)
24.06.2006 07:00 14,7 C 92 % 1016 hPa N 5,6 km/h (1 Bft)
24.06.2006 08:00 16,7 C 83 % 1016 hPa N 6,2 km/h (2 Bft)
24.06.2006 09:00 19,5 C 73 % 1016 hPa N-NO 6,0 km/h (2 Bft)
24.06.2006 10:00 22,2 C 62 % 1016 hPa O-SO 7,9 km/h (2 Bft)
24.06.2006 11:00 24,7 C 50 % 1016 hPa O 9,3 km/h (2 Bft)
24.06.2006 12:00 26,4 C 47 % 1016 hPa O 8,7 km/h (2 Bft)
24.06.2006 13:00 27,7 C 42 % 1016 hPa S 7,6 km/h (2 Bft)
24.06.2006 14:00 28,3 C 38 % 1016 hPa N-NO 9,2 km/h (2 Bft)
24.06.2006 15:00 29,3 C 34 % 1015 hPa O-NO 12,0 km/h (2 Bft)
24.06.2006 16:00 30,0 C 33 % 1015 hPa N-NO 10,5 km/h (2 Bft)
24.06.2006 17:00 30,0 C 33 % 1014 hPa N-NO 12,5 km/h (3 Bft)
24.06.2006 18:00 30,0 C 32 % 1013 hPa O-NO 11,7 km/h (2 Bft)
24.06.2006 19:00 28,4 C 38 % 1014 hPa O-NO 10,3 km/h (2 Bft)
24.06.2006 20:00 25,5 C 48 % 1014 hPa W 3,4 km/h (1 Bft)
24.06.2006 21:00 23,5 C 56 % 1015 hPa W-NW 1,6 km/h (1 Bft)
24.06.2006 22:00 22,4 C 62 % 1015 hPa W 2,3 km/h (1 Bft)
24.06.2006 23:00 22,1 C 64 % 1015 hPa W-SW 4,0 km/h (1 Bft)
25.06.2006 00:00 21,8 C 65 % 1015 hPa SO 4,0 km/h (1 Bft)
25.06.2006 01:00 20,6 C 71 % 1015 hPa S-SW 8,7 km/h (2 Bft)
25.06.2006 02:00 20,0 C 72 % 1015 hPa W 5,2 km/h (1 Bft)
25.06.2006 03:00 19,6 C 75 % 1015 hPa S 2,3 km/h (1 Bft)
25.06.2006 04:00 19,0 C 79 % 1014 hPa N 0,0 km/h (0 Bft)
25.06.2006 05:00 18,5 C 81 % 1015 hPa N 0,0 km/h (0 Bft)
25.06.2006 06:00 18,5 C 82 % 1014 hPa N 0,0 km/h (0 Bft)
25.06.2006 07:00 18,9 C 84 % 1014 hPa S-SO 2,3 km/h (1 Bft)
25.06.2006 08:00 20,2 C 72 % 1015 hPa S-SW 2,4 km/h (1 Bft)
25.06.2006 09:00 22,3 C 65 % 1014 hPa S-SW 3,0 km/h (1 Bft)
25.06.2006 10:00 24,8 C 52 % 1014 hPa S 8,2 km/h (2 Bft)
25.06.2006 11:00 27,3 C 42 % 1014 hPa S-SW 9,1 km/h (2 Bft)
25.06.2006 12:00 29,3 C 37 % 1013 hPa S 6,1 km/h (2 Bft)
25.06.2006 13:00 30,8 C 32 % 1013 hPa O 8,0 km/h (2 Bft)
25.06.2006 14:00 32,1 C 30 % 1012 hPa O 7,8 km/h (2 Bft)
25.06.2006 15:00 32,4 C 28 % 1012 hPa S 8,1 km/h (2 Bft)
25.06.2006 16:00 33,2 C 24 % 1011 hPa W-SW 5,5 km/h (1 Bft)
25.06.2006 17:00 32,9 C 25 % 1010 hPa S 3,6 km/h (1 Bft)
25.06.2006 18:00 31,1 C 34 % 1010 hPa W 1,7 km/h (1 Bft)
25.06.2006 19:00 23,3 C 57 % 1011 hPa O 17,9 km/h (3 Bft)
25.06.2006 20:00 20,3 C 67 % 1012 hPa W 8,6 km/h (2 Bft)
25.06.2006 21:00 19,4 C 73 % 1012 hPa NW 4,4 km/h (1 Bft)
25.06.2006 22:00 18,1 C 81 % 1012 hPa O 0,5 km/h (0 Bft)
25.06.2006 23:00 18,0 C 82 % 1014 hPa W 16,0 km/h (3 Bft)
Min-Datum _ 24.06.06 25.06.06 25.06.06 - 19.06.06
_ Min-Zeit 05:53 16:14 18:48 - 00:11
Minimum _ 13,7 C 23 % 1009 hPa - 0,0 km/h (0 Bft)
Max-Datum _ 25.06.06 22.06.06 19.06.06 - 25.06.06
_ Max-Zeit 16:45 06:20 00:00 - 19:05
Maximum _ 33,6 C 98 % 1018 hPa - 43,3 km/h
O (6 Bft)
Durchschnitt _ 21,4 C 65 % 1016 hPa S-SW 6,9 km/h (2 Bft)

Durchschnitt Minimum Temp.20,8 C
Durchschnitt Maximum Temp.21,9 C